sensor_id;sensor_type;location;lat;lon;timestamp;pressure;altitude;pressure_sealevel;temperature;humidity
53960;BME280;39866;48.638;-2.020;2023-03-25T00:02:22;100712.91;;;13.78;67.33
53960;BME280;39866;48.638;-2.020;2023-03-25T00:04:51;100718.38;;;13.75;67.04
53960;BME280;39866;48.638;-2.020;2023-03-25T00:07:18;100739.00;;;13.73;67.01
53960;BME280;39866;48.638;-2.020;2023-03-25T00:09:44;100729.09;;;13.75;66.38
53960;BME280;39866;48.638;-2.020;2023-03-25T00:12:09;100732.50;;;13.79;66.32
53960;BME280;39866;48.638;-2.020;2023-03-25T00:14:35;100744.53;;;13.69;66.31
53960;BME280;39866;48.638;-2.020;2023-03-25T00:17:00;100739.94;;;13.72;66.33
53960;BME280;39866;48.638;-2.020;2023-03-25T00:19:26;100739.69;;;13.78;66.99
53960;BME280;39866;48.638;-2.020;2023-03-25T00:21:52;100744.94;;;13.59;65.61
53960;BME280;39866;48.638;-2.020;2023-03-25T00:24:18;100737.63;;;13.63;65.37
53960;BME280;39866;48.638;-2.020;2023-03-25T00:26:44;100749.03;;;13.68;65.71
53960;BME280;39866;48.638;-2.020;2023-03-25T00:29:11;100741.38;;;13.81;65.84
53960;BME280;39866;48.638;-2.020;2023-03-25T00:31:37;100731.41;;;13.84;65.55
53960;BME280;39866;48.638;-2.020;2023-03-25T00:34:03;100739.78;;;13.75;65.45
53960;BME280;39866;48.638;-2.020;2023-03-25T00:36:29;100754.94;;;13.54;65.31
53960;BME280;39866;48.638;-2.020;2023-03-25T00:38:54;100746.91;;;13.76;65.24
53960;BME280;39866;48.638;-2.020;2023-03-25T00:41:22;100743.69;;;13.68;64.81
53960;BME280;39866;48.638;-2.020;2023-03-25T00:43:58;100758.72;;;13.71;65.07
53960;BME280;39866;48.638;-2.020;2023-03-25T00:46:25;100760.28;;;13.76;64.95
53960;BME280;39866;48.638;-2.020;2023-03-25T00:48:52;100748.88;;;13.71;65.15
53960;BME280;39866;48.638;-2.020;2023-03-25T00:51:17;100755.06;;;13.73;65.61
53960;BME280;39866;48.638;-2.020;2023-03-25T00:53:56;100758.88;;;13.68;65.21
53960;BME280;39866;48.638;-2.020;2023-03-25T00:56:24;100764.03;;;13.72;65.15
53960;BME280;39866;48.638;-2.020;2023-03-25T00:58:50;100760.25;;;13.56;64.43
53960;BME280;39866;48.638;-2.020;2023-03-25T01:01:18;100767.44;;;13.54;64.29
53960;BME280;39866;48.638;-2.020;2023-03-25T01:03:48;100774.28;;;13.61;64.60
53960;BME280;39866;48.638;-2.020;2023-03-25T01:06:15;100766.44;;;13.56;64.23
53960;BME280;39866;48.638;-2.020;2023-03-25T01:08:41;100773.09;;;13.68;63.83
53960;BME280;39866;48.638;-2.020;2023-03-25T01:11:17;100767.69;;;13.70;63.54
53960;BME280;39866;48.638;-2.020;2023-03-25T01:13:43;100753.38;;;13.71;63.30
53960;BME280;39866;48.638;-2.020;2023-03-25T01:16:08;100755.59;;;13.81;63.54
53960;BME280;39866;48.638;-2.020;2023-03-25T01:18:34;100756.13;;;13.69;63.47
53960;BME280;39866;48.638;-2.020;2023-03-25T01:21:05;100745.41;;;13.69;62.88
53960;BME280;39866;48.638;-2.020;2023-03-25T01:23:32;100755.38;;;13.66;63.06
53960;BME280;39866;48.638;-2.020;2023-03-25T01:25:57;100760.97;;;13.81;62.58
53960;BME280;39866;48.638;-2.020;2023-03-25T01:28:23;100743.69;;;13.68;62.14
53960;BME280;39866;48.638;-2.020;2023-03-25T01:30:48;100756.13;;;13.69;62.27
53960;BME280;39866;48.638;-2.020;2023-03-25T01:33:14;100761.94;;;13.79;62.03
53960;BME280;39866;48.638;-2.020;2023-03-25T01:35:40;100757.66;;;13.75;62.30
53960;BME280;39866;48.638;-2.020;2023-03-25T01:38:05;100756.00;;;13.72;62.32
53960;BME280;39866;48.638;-2.020;2023-03-25T01:40:31;100758.41;;;13.78;62.38
53960;BME280;39866;48.638;-2.020;2023-03-25T01:42:56;100748.53;;;13.80;62.30
53960;BME280;39866;48.638;-2.020;2023-03-25T01:45:30;100753.34;;;13.93;62.31
53960;BME280;39866;48.638;-2.020;2023-03-25T01:48:14;100766.00;;;13.89;62.08
53960;BME280;39866;48.638;-2.020;2023-03-25T01:50:46;100765.31;;;13.84;61.52
53960;BME280;39866;48.638;-2.020;2023-03-25T01:53:13;100776.63;;;13.91;61.83
53960;BME280;39866;48.638;-2.020;2023-03-25T01:55:41;100771.47;;;13.86;62.10
53960;BME280;39866;48.638;-2.020;2023-03-25T01:58:11;100783.31;;;13.80;61.62
53960;BME280;39866;48.638;-2.020;2023-03-25T02:00:42;100777.00;;;13.81;61.84
53960;BME280;39866;48.638;-2.020;2023-03-25T02:03:09;100783.78;;;13.90;62.26
53960;BME280;39866;48.638;-2.020;2023-03-25T02:06:03;100802.22;;;13.98;62.29
53960;BME280;39866;48.638;-2.020;2023-03-25T02:08:36;100796.66;;;14.02;61.74
53960;BME280;39866;48.638;-2.020;2023-03-25T02:11:04;100796.47;;;14.07;62.27
53960;BME280;39866;48.638;-2.020;2023-03-25T02:13:30;100798.38;;;14.03;62.18
53960;BME280;39866;48.638;-2.020;2023-03-25T02:16:06;100801.25;;;13.99;62.34
53960;BME280;39866;48.638;-2.020;2023-03-25T02:29:54;100823.94;;;13.90;61.65
53960;BME280;39866;48.638;-2.020;2023-03-25T02:40:19;100831.31;;;13.83;61.98
53960;BME280;39866;48.638;-2.020;2023-03-25T02:42:53;100829.78;;;13.56;61.94
53960;BME280;39866;48.638;-2.020;2023-03-25T02:45:29;100817.53;;;13.72;61.70
53960;BME280;39866;48.638;-2.020;2023-03-25T02:48:00;100820.25;;;13.71;61.13
53960;BME280;39866;48.638;-2.020;2023-03-25T02:50:34;100813.72;;;13.78;61.67
53960;BME280;39866;48.638;-2.020;2023-03-25T02:53:01;100832.19;;;13.62;61.95
53960;BME280;39866;48.638;-2.020;2023-03-25T02:55:30;100820.75;;;13.58;61.83
53960;BME280;39866;48.638;-2.020;2023-03-25T02:57:58;100801.28;;;13.77;61.08
53960;BME280;39866;48.638;-2.020;2023-03-25T03:00:28;100802.66;;;13.65;61.92
53960;BME280;39866;48.638;-2.020;2023-03-25T03:02:56;100813.34;;;13.87;61.41
53960;BME280;39866;48.638;-2.020;2023-03-25T03:05:28;100834.56;;;13.92;61.56
53960;BME280;39866;48.638;-2.020;2023-03-25T03:10:49;100829.56;;;13.84;61.30
53960;BME280;39866;48.638;-2.020;2023-03-25T03:13:31;100828.91;;;13.77;60.92
53960;BME280;39866;48.638;-2.020;2023-03-25T03:16:05;100848.06;;;13.67;61.94
53960;BME280;39866;48.638;-2.020;2023-03-25T03:18:43;100843.03;;;13.81;62.35
53960;BME280;39866;48.638;-2.020;2023-03-25T03:24:20;100840.41;;;13.79;61.31
53960;BME280;39866;48.638;-2.020;2023-03-25T03:26:50;100855.03;;;13.71;62.13
53960;BME280;39866;48.638;-2.020;2023-03-25T03:29:25;100857.66;;;13.72;61.53
53960;BME280;39866;48.638;-2.020;2023-03-25T03:34:35;100851.06;;;13.81;61.48
53960;BME280;39866;48.638;-2.020;2023-03-25T03:37:09;100856.66;;;13.75;61.66
53960;BME280;39866;48.638;-2.020;2023-03-25T03:39:37;100854.53;;;13.83;61.02
53960;BME280;39866;48.638;-2.020;2023-03-25T03:42:22;100854.50;;;13.84;60.93
53960;BME280;39866;48.638;-2.020;2023-03-25T03:44:53;100853.94;;;13.76;61.37
53960;BME280;39866;48.638;-2.020;2023-03-25T03:47:23;100861.34;;;13.70;60.09
53960;BME280;39866;48.638;-2.020;2023-03-25T03:49:55;100855.41;;;13.83;60.38
53960;BME280;39866;48.638;-2.020;2023-03-25T03:52:45;100857.47;;;13.77;60.26
53960;BME280;39866;48.638;-2.020;2023-03-25T03:55:25;100861.13;;;13.74;59.92
53960;BME280;39866;48.638;-2.020;2023-03-25T03:57:58;100858.72;;;13.68;59.78
53960;BME280;39866;48.638;-2.020;2023-03-25T04:00:30;100862.28;;;13.69;59.90
53960;BME280;39866;48.638;-2.020;2023-03-25T04:03:05;100856.16;;;13.87;59.69
53960;BME280;39866;48.638;-2.020;2023-03-25T04:05:34;100871.81;;;13.76;59.76
53960;BME280;39866;48.638;-2.020;2023-03-25T04:08:06;100864.47;;;13.81;59.39
53960;BME280;39866;48.638;-2.020;2023-03-25T04:10:42;100871.47;;;13.83;59.79
53960;BME280;39866;48.638;-2.020;2023-03-25T04:13:12;100875.41;;;13.97;59.69
53960;BME280;39866;48.638;-2.020;2023-03-25T04:15:40;100883.06;;;13.84;59.41
53960;BME280;39866;48.638;-2.020;2023-03-25T04:18:06;100881.03;;;13.67;59.39
53960;BME280;39866;48.638;-2.020;2023-03-25T04:20:33;100891.16;;;13.82;58.62
53960;BME280;39866;48.638;-2.020;2023-03-25T04:23:01;100900.47;;;13.72;58.85
53960;BME280;39866;48.638;-2.020;2023-03-25T04:25:26;100892.88;;;13.83;59.00
53960;BME280;39866;48.638;-2.020;2023-03-25T04:27:53;100903.09;;;13.74;59.24
53960;BME280;39866;48.638;-2.020;2023-03-25T04:30:23;100904.34;;;13.87;59.54
53960;BME280;39866;48.638;-2.020;2023-03-25T04:32:50;100899.13;;;13.84;59.66
53960;BME280;39866;48.638;-2.020;2023-03-25T04:35:17;100896.13;;;13.92;59.43
53960;BME280;39866;48.638;-2.020;2023-03-25T04:37:44;100898.75;;;13.93;59.70
53960;BME280;39866;48.638;-2.020;2023-03-25T04:40:13;100900.75;;;13.88;59.68
53960;BME280;39866;48.638;-2.020;2023-03-25T04:42:40;100907.84;;;13.89;59.56
53960;BME280;39866;48.638;-2.020;2023-03-25T04:45:07;100897.22;;;13.64;60.06
53960;BME280;39866;48.638;-2.020;2023-03-25T04:47:38;100907.56;;;13.73;60.48
53960;BME280;39866;48.638;-2.020;2023-03-25T04:52:40;100906.63;;;13.74;60.45
53960;BME280;39866;48.638;-2.020;2023-03-25T04:55:06;100903.00;;;13.75;60.36
53960;BME280;39866;48.638;-2.020;2023-03-25T04:57:31;100910.81;;;13.81;60.31
53960;BME280;39866;48.638;-2.020;2023-03-25T04:59:56;100902.09;;;13.76;60.58
53960;BME280;39866;48.638;-2.020;2023-03-25T05:02:22;100914.19;;;13.86;60.56
53960;BME280;39866;48.638;-2.020;2023-03-25T05:04:48;100912.31;;;13.88;60.59
53960;BME280;39866;48.638;-2.020;2023-03-25T05:07:14;100922.38;;;13.82;60.65
53960;BME280;39866;48.638;-2.020;2023-03-25T05:09:40;100930.22;;;13.86;60.73
53960;BME280;39866;48.638;-2.020;2023-03-25T05:12:05;100918.16;;;13.76;60.75
53960;BME280;39866;48.638;-2.020;2023-03-25T05:14:35;100928.09;;;13.73;60.93
53960;BME280;39866;48.638;-2.020;2023-03-25T05:17:00;100930.22;;;13.86;60.69
53960;BME280;39866;48.638;-2.020;2023-03-25T05:19:25;100931.06;;;13.88;60.28
53960;BME280;39866;48.638;-2.020;2023-03-25T05:21:53;100936.28;;;13.92;60.31
53960;BME280;39866;48.638;-2.020;2023-03-25T05:24:20;100914.44;;;13.80;60.51
53960;BME280;39866;48.638;-2.020;2023-03-25T05:26:45;100947.53;;;14.00;60.95
53960;BME280;39866;48.638;-2.020;2023-03-25T05:29:12;100948.00;;;14.11;60.76
53960;BME280;39866;48.638;-2.020;2023-03-25T05:31:39;100948.81;;;14.13;60.46
53960;BME280;39866;48.638;-2.020;2023-03-25T05:34:05;100944.38;;;14.12;60.56
53960;BME280;39866;48.638;-2.020;2023-03-25T05:36:33;100951.91;;;14.02;60.66
53960;BME280;39866;48.638;-2.020;2023-03-25T05:38:58;100944.94;;;13.98;60.96
53960;BME280;39866;48.638;-2.020;2023-03-25T05:41:26;100957.66;;;13.93;60.35
53960;BME280;39866;48.638;-2.020;2023-03-25T05:44:03;100957.25;;;13.80;60.20
53960;BME280;39866;48.638;-2.020;2023-03-25T05:46:29;100968.97;;;14.00;59.30
53960;BME280;39866;48.638;-2.020;2023-03-25T05:48:55;100972.88;;;13.91;59.16
53960;BME280;39866;48.638;-2.020;2023-03-25T05:51:28;100970.66;;;13.79;60.33
53960;BME280;39866;48.638;-2.020;2023-03-25T05:53:58;100962.31;;;13.88;60.13
53960;BME280;39866;48.638;-2.020;2023-03-25T05:56:23;100972.94;;;13.90;60.33
53960;BME280;39866;48.638;-2.020;2023-03-25T05:58:51;100988.63;;;13.99;59.98
53960;BME280;39866;48.638;-2.020;2023-03-25T06:01:18;100983.25;;;14.00;60.12
53960;BME280;39866;48.638;-2.020;2023-03-25T06:03:44;100993.50;;;13.89;60.25
53960;BME280;39866;48.638;-2.020;2023-03-25T06:06:11;100990.84;;;13.87;60.21
53960;BME280;39866;48.638;-2.020;2023-03-25T06:08:48;100984.78;;;13.84;60.91
53960;BME280;39866;48.638;-2.020;2023-03-25T06:11:17;100993.59;;;13.86;60.66
53960;BME280;39866;48.638;-2.020;2023-03-25T06:13:44;101003.16;;;13.93;60.44
53960;BME280;39866;48.638;-2.020;2023-03-25T06:16:21;100991.31;;;13.99;60.70
53960;BME280;39866;48.638;-2.020;2023-03-25T06:18:49;100996.91;;;13.93;60.76
53960;BME280;39866;48.638;-2.020;2023-03-25T06:21:18;101017.50;;;13.91;60.92
53960;BME280;39866;48.638;-2.020;2023-03-25T06:23:47;101002.22;;;13.94;61.03
53960;BME280;39866;48.638;-2.020;2023-03-25T06:26:15;101005.06;;;13.90;61.19
53960;BME280;39866;48.638;-2.020;2023-03-25T06:28:41;101013.31;;;14.07;60.87
53960;BME280;39866;48.638;-2.020;2023-03-25T06:31:17;101008.06;;;14.04;61.33
53960;BME280;39866;48.638;-2.020;2023-03-25T06:33:46;101008.72;;;14.10;61.18
53960;BME280;39866;48.638;-2.020;2023-03-25T06:36:14;101007.38;;;14.22;60.62
53960;BME280;39866;48.638;-2.020;2023-03-25T06:38:43;100994.66;;;14.27;60.95
53960;BME280;39866;48.638;-2.020;2023-03-25T06:41:09;101012.47;;;14.28;61.22
53960;BME280;39866;48.638;-2.020;2023-03-25T06:43:35;101017.47;;;14.37;61.21
53960;BME280;39866;48.638;-2.020;2023-03-25T06:46:00;101023.81;;;14.35;61.52
53960;BME280;39866;48.638;-2.020;2023-03-25T06:48:25;101024.44;;;14.42;61.67
53960;BME280;39866;48.638;-2.020;2023-03-25T06:50:51;101019.31;;;14.35;61.68
53960;BME280;39866;48.638;-2.020;2023-03-25T06:53:17;101029.94;;;14.38;61.43
53960;BME280;39866;48.638;-2.020;2023-03-25T06:55:43;101022.94;;;14.34;61.43
53960;BME280;39866;48.638;-2.020;2023-03-25T06:58:09;101035.41;;;14.35;61.21
53960;BME280;39866;48.638;-2.020;2023-03-25T07:00:35;101041.81;;;14.31;61.37
53960;BME280;39866;48.638;-2.020;2023-03-25T07:03:01;101050.22;;;14.22;60.76
53960;BME280;39866;48.638;-2.020;2023-03-25T07:05:26;101023.63;;;14.40;60.72
53960;BME280;39866;48.638;-2.020;2023-03-25T07:07:51;101030.03;;;14.35;59.45
53960;BME280;39866;48.638;-2.020;2023-03-25T07:10:17;101033.41;;;14.41;59.72
53960;BME280;39866;48.638;-2.020;2023-03-25T07:12:42;101041.00;;;14.29;59.27
53960;BME280;39866;48.638;-2.020;2023-03-25T07:15:08;101046.19;;;14.10;59.74
53960;BME280;39866;48.638;-2.020;2023-03-25T07:17:34;101049.16;;;14.26;59.06
53960;BME280;39866;48.638;-2.020;2023-03-25T07:19:59;101048.97;;;14.31;59.55
53960;BME280;39866;48.638;-2.020;2023-03-25T07:22:25;101056.69;;;14.17;59.69
53960;BME280;39866;48.638;-2.020;2023-03-25T07:24:50;101059.38;;;14.17;59.56
53960;BME280;39866;48.638;-2.020;2023-03-25T07:27:16;101052.97;;;14.21;59.45
53960;BME280;39866;48.638;-2.020;2023-03-25T07:29:42;101044.84;;;14.22;59.39
53960;BME280;39866;48.638;-2.020;2023-03-25T07:32:07;101054.72;;;14.44;59.21
53960;BME280;39866;48.638;-2.020;2023-03-25T07:34:32;101069.22;;;14.38;59.10
53960;BME280;39866;48.638;-2.020;2023-03-25T07:36:58;101065.88;;;14.33;58.26
53960;BME280;39866;48.638;-2.020;2023-03-25T07:39:23;101069.53;;;14.30;58.26
53960;BME280;39866;48.638;-2.020;2023-03-25T07:41:52;101076.41;;;14.37;58.41
53960;BME280;39866;48.638;-2.020;2023-03-25T07:44:18;101079.88;;;14.40;58.59
53960;BME280;39866;48.638;-2.020;2023-03-25T07:46:47;101077.44;;;14.33;58.55
53960;BME280;39866;48.638;-2.020;2023-03-25T07:49:13;101075.69;;;14.32;59.47
53960;BME280;39866;48.638;-2.020;2023-03-25T07:51:40;101077.31;;;14.36;58.94
53960;BME280;39866;48.638;-2.020;2023-03-25T07:54:05;101076.81;;;14.27;58.87
53960;BME280;39866;48.638;-2.020;2023-03-25T07:56:30;101073.44;;;14.22;58.57
53960;BME280;39866;48.638;-2.020;2023-03-25T07:58:56;101084.91;;;14.49;59.03
53960;BME280;39866;48.638;-2.020;2023-03-25T08:01:21;101094.03;;;14.20;58.78
53960;BME280;39866;48.638;-2.020;2023-03-25T08:03:46;101094.31;;;14.35;58.37
53960;BME280;39866;48.638;-2.020;2023-03-25T08:06:12;101090.38;;;14.46;59.14
53960;BME280;39866;48.638;-2.020;2023-03-25T08:08:37;101104.00;;;14.63;57.99
53960;BME280;39866;48.638;-2.020;2023-03-25T08:11:03;101100.69;;;14.56;58.21
53960;BME280;39866;48.638;-2.020;2023-03-25T08:13:29;101103.53;;;14.52;58.06
53960;BME280;39866;48.638;-2.020;2023-03-25T08:15:54;101111.38;;;14.80;57.44
53960;BME280;39866;48.638;-2.020;2023-03-25T08:18:20;101106.81;;;14.82;57.59
53960;BME280;39866;48.638;-2.020;2023-03-25T08:20:47;101093.03;;;14.69;57.18
53960;BME280;39866;48.638;-2.020;2023-03-25T08:23:13;101095.69;;;14.69;57.13
53960;BME280;39866;48.638;-2.020;2023-03-25T08:25:42;101112.22;;;14.80;57.38
53960;BME280;39866;48.638;-2.020;2023-03-25T08:28:08;101108.88;;;14.75;56.79
53960;BME280;39866;48.638;-2.020;2023-03-25T08:30:35;101124.69;;;14.81;56.88
53960;BME280;39866;48.638;-2.020;2023-03-25T08:33:06;101125.19;;;14.69;57.06
53960;BME280;39866;48.638;-2.020;2023-03-25T08:35:33;101125.06;;;14.72;56.72
53960;BME280;39866;48.638;-2.020;2023-03-25T08:37:59;101126.13;;;14.68;57.35
53960;BME280;39866;48.638;-2.020;2023-03-25T08:40:26;101128.81;;;14.68;57.19
53960;BME280;39866;48.638;-2.020;2023-03-25T08:42:51;101126.00;;;14.71;57.30
53960;BME280;39866;48.638;-2.020;2023-03-25T08:45:17;101121.22;;;14.79;57.11
53960;BME280;39866;48.638;-2.020;2023-03-25T08:47:42;101146.50;;;14.72;57.45
53960;BME280;39866;48.638;-2.020;2023-03-25T08:50:09;101154.31;;;14.78;57.25
53960;BME280;39866;48.638;-2.020;2023-03-25T08:52:35;101140.53;;;14.88;57.56
53960;BME280;39866;48.638;-2.020;2023-03-25T08:55:00;101152.22;;;14.86;57.73
53960;BME280;39866;48.638;-2.020;2023-03-25T08:57:26;101154.22;;;15.03;57.59
53960;BME280;39866;48.638;-2.020;2023-03-25T08:59:51;101154.41;;;14.99;57.16
53960;BME280;39866;48.638;-2.020;2023-03-25T09:02:16;101156.81;;;14.83;57.92
53960;BME280;39866;48.638;-2.020;2023-03-25T09:04:42;101153.88;;;14.89;57.64
53960;BME280;39866;48.638;-2.020;2023-03-25T09:07:07;101160.81;;;14.95;57.68
53960;BME280;39866;48.638;-2.020;2023-03-25T09:09:36;101162.13;;;15.06;57.65
53960;BME280;39866;48.638;-2.020;2023-03-25T09:12:02;101170.66;;;15.16;57.36
53960;BME280;39866;48.638;-2.020;2023-03-25T09:14:27;101172.41;;;15.17;57.83
53960;BME280;39866;48.638;-2.020;2023-03-25T09:16:52;101166.38;;;15.12;57.73
53960;BME280;39866;48.638;-2.020;2023-03-25T09:19:18;101171.09;;;15.27;57.57
53960;BME280;39866;48.638;-2.020;2023-03-25T09:21:43;101161.63;;;15.19;57.28
53960;BME280;39866;48.638;-2.020;2023-03-25T09:24:08;101173.78;;;15.27;57.61
53960;BME280;39866;48.638;-2.020;2023-03-25T09:26:35;101167.88;;;15.19;57.71
53960;BME280;39866;48.638;-2.020;2023-03-25T09:29:01;101176.59;;;15.24;57.57
53960;BME280;39866;48.638;-2.020;2023-03-25T09:31:26;101199.28;;;15.38;57.11
53960;BME280;39866;48.638;-2.020;2023-03-25T09:33:52;101179.09;;;15.29;57.03
53960;BME280;39866;48.638;-2.020;2023-03-25T09:36:17;101188.25;;;15.23;57.70
53960;BME280;39866;48.638;-2.020;2023-03-25T09:38:43;101177.59;;;15.44;57.64
53960;BME280;39866;48.638;-2.020;2023-03-25T09:44:16;101188.91;;;15.50;56.51
53960;BME280;39866;48.638;-2.020;2023-03-25T09:46:43;101191.00;;;15.66;57.17
53960;BME280;39866;48.638;-2.020;2023-03-25T09:49:17;101188.00;;;15.51;56.00
53960;BME280;39866;48.638;-2.020;2023-03-25T09:51:45;101208.00;;;15.43;56.55
53960;BME280;39866;48.638;-2.020;2023-03-25T09:54:28;101206.09;;;15.24;56.67
53960;BME280;39866;48.638;-2.020;2023-03-25T09:56:58;101213.78;;;15.55;57.02
53960;BME280;39866;48.638;-2.020;2023-03-25T09:59:59;101216.97;;;15.43;55.69
53960;BME280;39866;48.638;-2.020;2023-03-25T10:05:10;101228.13;;;15.76;55.09
53960;BME280;39866;48.638;-2.020;2023-03-25T10:15:42;101236.72;;;15.84;55.10
53960;BME280;39866;48.638;-2.020;2023-03-25T10:23:41;101216.88;;;16.09;54.32
53960;BME280;39866;48.638;-2.020;2023-03-25T10:26:23;101217.09;;;16.23;53.36
53960;BME280;39866;48.638;-2.020;2023-03-25T10:28:53;101220.88;;;16.19;53.20
53960;BME280;39866;48.638;-2.020;2023-03-25T10:31:23;101220.09;;;16.17;53.11
53960;BME280;39866;48.638;-2.020;2023-03-25T10:33:53;101225.25;;;16.22;52.73
53960;BME280;39866;48.638;-2.020;2023-03-25T10:36:31;101222.06;;;16.32;53.01
53960;BME280;39866;48.638;-2.020;2023-03-25T10:38:58;101224.50;;;16.18;52.60
53960;BME280;39866;48.638;-2.020;2023-03-25T10:41:30;101224.84;;;16.31;52.16
53960;BME280;39866;48.638;-2.020;2023-03-25T10:43:59;101227.72;;;16.26;53.02
53960;BME280;39866;48.638;-2.020;2023-03-25T10:49:13;101230.28;;;16.29;51.84
53960;BME280;39866;48.638;-2.020;2023-03-25T10:51:40;101215.97;;;16.29;51.67
53960;BME280;39866;48.638;-2.020;2023-03-25T10:54:09;101233.34;;;16.20;51.96
53960;BME280;39866;48.638;-2.020;2023-03-25T10:56:50;101222.97;;;16.33;51.81
53960;BME280;39866;48.638;-2.020;2023-03-25T10:59:30;101233.34;;;16.41;52.38
53960;BME280;39866;48.638;-2.020;2023-03-25T11:02:00;101230.28;;;16.29;51.46
53960;BME280;39866;48.638;-2.020;2023-03-25T11:04:35;101237.81;;;16.01;52.42
53960;BME280;39866;48.638;-2.020;2023-03-25T11:07:02;101231.75;;;16.16;52.05
53960;BME280;39866;48.638;-2.020;2023-03-25T11:09:32;101224.72;;;16.34;50.91
53960;BME280;39866;48.638;-2.020;2023-03-25T11:12:04;101268.50;;;16.16;52.19
53960;BME280;39866;48.638;-2.020;2023-03-25T11:14:36;101241.28;;;16.44;52.44
53960;BME280;39866;48.638;-2.020;2023-03-25T11:17:06;101232.00;;;16.51;52.29
53960;BME280;39866;48.638;-2.020;2023-03-25T11:19:36;101233.91;;;16.68;52.08
53960;BME280;39866;48.638;-2.020;2023-03-25T11:22:25;101234.25;;;16.41;52.37
53960;BME280;39866;48.638;-2.020;2023-03-25T11:24:58;101235.50;;;16.32;52.12
53960;BME280;39866;48.638;-2.020;2023-03-25T11:27:26;101228.91;;;16.40;51.73
53960;BME280;39866;48.638;-2.020;2023-03-25T11:30:04;101224.56;;;16.37;51.68
53960;BME280;39866;48.638;-2.020;2023-03-25T11:32:36;101225.03;;;16.26;52.92
53960;BME280;39866;48.638;-2.020;2023-03-25T11:35:14;101227.28;;;16.56;52.60
53960;BME280;39866;48.638;-2.020;2023-03-25T11:37:52;101217.34;;;16.58;51.22
53960;BME280;39866;48.638;-2.020;2023-03-25T11:40:18;101225.66;;;16.52;50.84
53960;BME280;39866;48.638;-2.020;2023-03-25T11:42:50;101216.50;;;16.76;50.78
53960;BME280;39866;48.638;-2.020;2023-03-25T11:45:22;101223.38;;;16.63;52.01
53960;BME280;39866;48.638;-2.020;2023-03-25T11:47:49;101227.66;;;16.67;51.21
53960;BME280;39866;48.638;-2.020;2023-03-25T11:50:24;101223.88;;;16.71;51.08
53960;BME280;39866;48.638;-2.020;2023-03-25T11:52:59;101218.25;;;16.77;52.31
53960;BME280;39866;48.638;-2.020;2023-03-25T11:55:31;101207.22;;;16.83;51.55
53960;BME280;39866;48.638;-2.020;2023-03-25T11:58:00;101214.69;;;16.96;51.71
53960;BME280;39866;48.638;-2.020;2023-03-25T12:03:21;101203.25;;;16.72;51.14
53960;BME280;39866;48.638;-2.020;2023-03-25T12:06:02;101205.91;;;16.92;51.12
53960;BME280;39866;48.638;-2.020;2023-03-25T12:08:40;101210.13;;;16.79;51.30
53960;BME280;39866;48.638;-2.020;2023-03-25T12:11:11;101211.69;;;17.02;50.53
53960;BME280;39866;48.638;-2.020;2023-03-25T12:14:02;101203.13;;;16.94;50.77
53960;BME280;39866;48.638;-2.020;2023-03-25T12:16:47;101193.81;;;17.01;50.10
53960;BME280;39866;48.638;-2.020;2023-03-25T12:19:28;101193.97;;;17.17;50.45
53960;BME280;39866;48.638;-2.020;2023-03-25T12:30:18;101166.03;;;17.19;50.41
53960;BME280;39866;48.638;-2.020;2023-03-25T12:33:04;101182.66;;;16.91;49.86
53960;BME280;39866;48.638;-2.020;2023-03-25T12:35:45;101186.84;;;16.97;49.42
53960;BME280;39866;48.638;-2.020;2023-03-25T12:41:13;101178.63;;;17.00;50.40
53960;BME280;39866;48.638;-2.020;2023-03-25T12:56:44;101154.94;;;17.08;54.99
53960;BME280;39866;48.638;-2.020;2023-03-25T13:07:15;101124.59;;;17.23;54.12
53960;BME280;39866;48.638;-2.020;2023-03-25T13:12:33;101109.69;;;17.33;53.10
53960;BME280;39866;48.638;-2.020;2023-03-25T13:15:11;101107.63;;;17.21;51.58
53960;BME280;39866;48.638;-2.020;2023-03-25T13:17:46;101101.56;;;17.52;51.71
53960;BME280;39866;48.638;-2.020;2023-03-25T13:20:15;101098.69;;;17.38;50.65
53960;BME280;39866;48.638;-2.020;2023-03-25T13:22:43;101093.88;;;17.45;50.81
53960;BME280;39866;48.638;-2.020;2023-03-25T13:25:47;101099.56;;;17.39;50.79
53960;BME280;39866;48.638;-2.020;2023-03-25T13:28:20;101083.97;;;17.63;49.60
53960;BME280;39866;48.638;-2.020;2023-03-25T13:30:48;101068.69;;;17.80;49.34
53960;BME280;39866;48.638;-2.020;2023-03-25T13:33:24;101067.75;;;17.81;49.49
53960;BME280;39866;48.638;-2.020;2023-03-25T13:38:26;101081.06;;;17.85;48.57
53960;BME280;39866;48.638;-2.020;2023-03-25T13:46:40;101080.94;;;18.19;48.38
53960;BME280;39866;48.638;-2.020;2023-03-25T13:51:47;101077.53;;;18.16;48.91
53960;BME280;39866;48.638;-2.020;2023-03-25T13:54:18;101077.16;;;18.39;48.12
53960;BME280;39866;48.638;-2.020;2023-03-25T13:56:57;101084.88;;;18.29;48.89
53960;BME280;39866;48.638;-2.020;2023-03-25T13:59:43;101077.06;;;18.25;47.75
53960;BME280;39866;48.638;-2.020;2023-03-25T14:12:52;101054.19;;;18.48;43.10
53960;BME280;39866;48.638;-2.020;2023-03-25T14:15:22;101048.38;;;18.55;43.04
53960;BME280;39866;48.638;-2.020;2023-03-25T14:17:50;101060.81;;;18.58;43.68
53960;BME280;39866;48.638;-2.020;2023-03-25T14:20:23;101066.81;;;18.63;42.77
53960;BME280;39866;48.638;-2.020;2023-03-25T14:22:56;101067.00;;;18.76;43.19
53960;BME280;39866;48.638;-2.020;2023-03-25T14:25:47;101033.47;;;18.96;43.04
53960;BME280;39866;48.638;-2.020;2023-03-25T14:28:40;101058.94;;;20.23;40.26
53960;BME280;39866;48.638;-2.020;2023-03-25T14:31:15;101058.53;;;21.12;38.90
53960;BME280;39866;48.638;-2.020;2023-03-25T14:39:12;101044.19;;;20.29;38.33
53960;BME280;39866;48.638;-2.020;2023-03-25T14:44:31;101038.13;;;19.83;40.36
53960;BME280;39866;48.638;-2.020;2023-03-25T14:47:24;101042.00;;;19.93;40.31
53960;BME280;39866;48.638;-2.020;2023-03-25T14:49:52;101045.94;;;20.01;41.22
53960;BME280;39866;48.638;-2.020;2023-03-25T14:52:40;101027.41;;;19.95;40.83
53960;BME280;39866;48.638;-2.020;2023-03-25T14:55:14;101028.47;;;19.93;40.75